createdAt,value
2019-05-02T00:01:42.176Z,3.87
2019-05-02T00:04:45.973Z,3.37
2019-05-02T00:07:53.765Z,3.53
2019-05-02T00:10:55.121Z,3.83
2019-05-02T00:13:59.328Z,3.93
2019-05-02T00:17:03.126Z,3.63
2019-05-02T00:20:08.599Z,3.50
2019-05-02T00:23:12.844Z,4.03
2019-05-02T00:26:16.599Z,4.03
2019-05-02T00:29:23.826Z,3.37
2019-05-02T00:32:25.950Z,3.93
2019-05-02T00:35:29.687Z,3.67
2019-05-02T00:38:38.252Z,3.77
2019-05-02T00:41:40.451Z,3.93
2019-05-02T00:44:47.045Z,4.40
2019-05-02T00:47:56.456Z,4.27
2019-05-02T00:51:00.391Z,4.30
2019-05-02T00:54:04.253Z,3.70
2019-05-02T00:57:07.947Z,4.90
2019-05-02T01:00:13.497Z,5.10
2019-05-02T01:03:18.012Z,5.53
2019-05-02T01:06:21.928Z,5.40
2019-05-02T01:09:25.614Z,5.97
2019-05-02T01:12:29.370Z,6.87
2019-05-02T01:15:33.046Z,6.23
2019-05-02T01:18:37.152Z,7.63
2019-05-02T01:21:42.237Z,8.37
2019-05-02T01:24:45.892Z,7.63
2019-05-02T01:28:17.271Z,7.73
2019-05-02T01:31:24.318Z,8.27
2019-05-02T01:34:56.411Z,8.50
2019-05-02T01:38:19.181Z,8.30
2019-05-02T01:41:23.950Z,8.53
2019-05-02T01:44:31.141Z,8.57
2019-05-02T01:47:34.347Z,8.40
2019-05-02T01:50:39.123Z,8.93
2019-05-02T01:53:43.235Z,8.37
2019-05-02T01:56:47.251Z,10.20
2019-05-02T01:59:50.938Z,8.90
2019-05-02T02:02:54.891Z,8.83
2019-05-02T02:05:58.565Z,10.67
2019-05-02T02:09:03.373Z,10.80
2019-05-02T02:12:09.752Z,10.30
2019-05-02T02:15:14.759Z,11.27
2019-05-02T02:18:22.139Z,12.27
2019-05-02T02:21:46.958Z,11.13
2019-05-02T02:25:09.686Z,10.30
2019-05-02T02:28:13.384Z,10.80
2019-05-02T02:31:19.773Z,10.70
2019-05-02T02:34:28.881Z,11.73
2019-05-02T02:37:32.272Z,12.00
2019-05-02T02:40:35.994Z,14.70
2019-05-02T02:43:39.967Z,11.73
2019-05-02T02:46:45.046Z,11.70
2019-05-02T02:49:48.737Z,11.17
2019-05-02T02:52:52.894Z,13.30
2019-05-02T02:56:02.058Z,12.70
2019-05-02T02:59:02.132Z,12.33
2019-05-02T03:02:10.128Z,12.83
2019-05-02T03:05:11.526Z,13.57
2019-05-02T03:08:15.287Z,16.27
2019-05-02T03:11:23.820Z,16.53
2019-05-02T03:14:29.576Z,16.13
2019-05-02T03:17:33.272Z,15.70
2019-05-02T03:20:40.647Z,15.87
2019-05-02T03:23:42.605Z,17.00
2019-05-02T03:26:48.607Z,18.63
2019-05-02T03:29:53.128Z,17.60
2019-05-02T03:33:06.452Z,18.10
2019-05-02T03:36:02.303Z,16.67
2019-05-02T03:39:14.845Z,18.63
2019-05-02T03:42:13.047Z,17.87
2019-05-02T03:45:16.722Z,19.53
2019-05-02T03:48:25.557Z,18.13
2019-05-02T03:51:26.269Z,20.87
2019-05-02T03:54:30.890Z,20.00
2019-05-02T03:57:36.149Z,22.83
2019-05-02T04:00:39.936Z,22.53
2019-05-02T04:03:43.961Z,23.10
2019-05-02T04:06:47.785Z,21.97
2019-05-02T04:09:51.855Z,20.63
2019-05-02T04:12:58.480Z,20.37
2019-05-02T04:16:02.372Z,21.47
2019-05-02T04:19:06.388Z,21.47
2019-05-02T04:22:12.056Z,22.40
2019-05-02T04:25:16.036Z,22.77
2019-05-02T04:28:21.772Z,21.53
2019-05-02T04:31:31.384Z,23.00
2019-05-02T04:34:31.303Z,22.70
2019-05-02T04:37:41.272Z,20.67
2019-05-02T04:40:44.906Z,21.37
2019-05-02T04:43:54.707Z,21.30
2019-05-02T04:46:51.545Z,22.67
2019-05-02T04:49:55.250Z,20.97
2019-05-02T04:52:59.346Z,21.30
2019-05-02T04:56:06.898Z,23.63
2019-05-02T04:59:17.616Z,20.57
2019-05-02T05:02:14.280Z,21.17
2019-05-02T05:05:25.708Z,22.30
2019-05-02T05:08:26.425Z,21.37
2019-05-02T05:11:29.122Z,20.97
2019-05-02T05:14:39.194Z,21.00
2019-05-02T05:17:38.858Z,20.43
2019-05-02T05:20:46.053Z,20.77
2019-05-02T05:24:10.185Z,19.67
2019-05-02T05:27:18.825Z,19.73
2019-05-02T05:30:19.517Z,19.20
2019-05-02T05:33:23.313Z,17.00
2019-05-02T05:36:32.518Z,16.73
2019-05-02T05:39:33.062Z,18.37
2019-05-02T05:42:37.918Z,17.63
2019-05-02T05:45:51.198Z,16.43
2019-05-02T05:48:47.690Z,16.97
2019-05-02T05:51:54.278Z,17.60
2019-05-02T05:54:57.893Z,16.63
2019-05-02T05:58:12.299Z,17.77
2019-05-02T06:01:10.136Z,17.43
2019-05-02T06:04:13.867Z,18.27
2019-05-02T06:07:20.033Z,16.63
2019-05-02T06:10:23.770Z,17.97
2019-05-02T06:13:27.455Z,17.80
2019-05-02T06:16:31.148Z,16.20
2019-05-02T06:19:34.842Z,17.10
2019-05-02T06:22:38.724Z,16.33
2019-05-02T06:25:42.939Z,15.83
2019-05-02T06:28:46.671Z,16.27
2019-05-02T06:31:50.438Z,16.53
2019-05-02T06:34:54.125Z,15.90
2019-05-02T06:37:57.809Z,15.70
2019-05-02T06:41:01.506Z,15.97
2019-05-02T06:44:05.266Z,14.80
2019-05-02T06:47:08.965Z,14.17
2019-05-02T06:50:13.760Z,12.30
2019-05-02T06:53:17.519Z,13.20
2019-05-02T06:56:21.602Z,13.93
2019-05-02T06:59:25.690Z,11.97
2019-05-02T07:02:33.666Z,13.27
2019-05-02T07:05:34.883Z,13.63
2019-05-02T07:08:38.563Z,14.67
2019-05-02T07:11:42.612Z,14.90
2019-05-02T07:14:46.300Z,14.33
2019-05-02T07:17:50.013Z,15.30
2019-05-02T07:20:53.780Z,15.13
2019-05-02T07:23:57.462Z,15.77
2019-05-02T07:27:02.387Z,14.57
2019-05-02T07:30:08.462Z,15.40
2019-05-02T07:33:12.252Z,14.20
2019-05-02T07:36:16.045Z,15.17
2019-05-02T07:39:20.029Z,15.90
2019-05-02T07:42:24.052Z,15.27
2019-05-02T07:45:27.768Z,15.33
2019-05-02T07:48:31.502Z,15.20
2019-05-02T07:51:35.629Z,15.03
2019-05-02T07:54:39.335Z,15.57
2019-05-02T07:57:43.110Z,15.53
2019-05-02T08:00:46.832Z,15.17
2019-05-02T08:03:50.553Z,17.30
2019-05-02T08:06:54.256Z,15.63
2019-05-02T08:09:58.009Z,14.40
2019-05-02T08:13:01.796Z,13.67
2019-05-02T08:16:05.670Z,13.57
2019-05-02T08:19:09.406Z,14.43
2019-05-02T08:22:14.800Z,14.03
2019-05-02T08:25:19.274Z,15.00
2019-05-02T08:28:28.629Z,17.87
2019-05-02T08:31:32.720Z,16.77
2019-05-02T08:34:36.445Z,18.13
2019-05-02T08:37:41.443Z,16.40
2019-05-02T08:40:47.723Z,17.70
2019-05-02T08:43:51.422Z,18.47
2019-05-02T08:46:55.426Z,16.30
2019-05-02T08:49:59.172Z,16.00
2019-05-02T08:53:02.909Z,16.90
2019-05-02T08:56:06.709Z,17.90
2019-05-02T08:59:10.449Z,15.90
2019-05-02T09:02:14.483Z,16.47
2019-05-02T09:05:18.669Z,17.13
2019-05-02T09:08:22.396Z,17.70
2019-05-02T09:11:26.119Z,15.87
2019-05-02T09:14:29.840Z,16.70
2019-05-02T09:17:38.397Z,16.47
2019-05-02T09:20:39.533Z,18.03
2019-05-02T09:23:43.995Z,15.37
2019-05-02T09:26:47.883Z,16.30
2019-05-02T09:29:51.952Z,13.70
2019-05-02T09:32:57.047Z,15.07
2019-05-02T09:36:02.357Z,15.10
2019-05-02T09:39:07.508Z,14.73
2019-05-02T09:42:15.188Z,15.80
2019-05-02T09:45:22.769Z,14.80
2019-05-02T09:48:27.074Z,16.17
2019-05-02T09:51:32.472Z,14.00
2019-05-02T09:54:37.109Z,14.57
2019-05-02T09:57:42.883Z,15.37
2019-05-02T10:01:02.425Z,15.20
2019-05-02T10:04:06.628Z,14.30
2019-05-02T10:07:12.107Z,13.83
2019-05-02T10:10:16.941Z,16.03
2019-05-02T10:13:22.703Z,15.77
2019-05-02T10:16:27.445Z,15.40
2019-05-02T10:19:32.699Z,15.60
2019-05-02T10:22:39.346Z,15.63
2019-05-02T10:25:46.756Z,17.03
2019-05-02T10:28:50.334Z,18.17
2019-05-02T10:31:54.008Z,19.03
2019-05-02T10:34:57.711Z,18.23
2019-05-02T10:38:02.506Z,21.57
2019-05-02T10:41:06.856Z,18.03
2019-05-02T10:44:12.747Z,17.77
2019-05-02T10:47:16.130Z,19.63
2019-05-02T10:50:24.708Z,18.53
2019-05-02T10:53:28.446Z,18.47
2019-05-02T10:56:32.499Z,19.60
2019-05-02T10:59:36.662Z,17.07
2019-05-02T11:02:57.645Z,18.73
2019-05-02T11:06:07.422Z,16.83
2019-05-02T11:09:12.037Z,16.73
2019-05-02T11:12:25.504Z,16.70
2019-05-02T11:15:46.883Z,14.37
2019-05-02T11:19:02.827Z,15.67
2019-05-02T11:22:06.616Z,15.93
2019-05-02T11:25:12.080Z,17.43
2019-05-02T11:28:16.029Z,17.07
2019-05-02T11:31:21.693Z,15.90
2019-05-02T11:34:25.432Z,16.93
2019-05-02T11:37:29.140Z,17.03
2019-05-02T11:40:32.949Z,16.47
2019-05-02T11:43:42.409Z,17.03
2019-05-02T11:46:46.835Z,17.00
2019-05-02T11:49:53.935Z,16.27
2019-05-02T11:52:53.985Z,17.03
2019-05-02T11:55:58.370Z,17.53
2019-05-02T11:59:03.158Z,18.23
2019-05-02T12:02:19.070Z,20.03
2019-05-02T12:05:26.550Z,21.17
2019-05-02T12:08:31.816Z,21.67
2019-05-02T12:11:35.066Z,20.67
2019-05-02T12:14:38.888Z,19.17
2019-05-02T12:17:42.634Z,20.60
2019-05-02T12:20:46.776Z,16.57
2019-05-02T12:23:52.602Z,18.27
2019-05-02T12:26:56.027Z,14.33
2019-05-02T12:29:59.767Z,14.50
2019-05-02T12:33:03.599Z,15.13
2019-05-02T12:36:11.942Z,13.93
2019-05-02T12:39:16.062Z,15.30
2019-05-02T12:42:20.158Z,14.83
2019-05-02T12:45:24.562Z,15.53
2019-05-02T12:48:28.429Z,16.00
2019-05-02T12:51:32.264Z,15.77
2019-05-02T12:54:35.955Z,15.50
2019-05-02T12:57:39.713Z,17.70
2019-05-02T13:00:43.626Z,16.13
2019-05-02T13:03:56.443Z,15.00
2019-05-02T13:07:02.035Z,15.03
2019-05-02T13:10:06.366Z,15.97
2019-05-02T13:13:12.279Z,16.50
2019-05-02T13:16:16.154Z,16.40
2019-05-02T13:19:23.669Z,14.33
2019-05-02T13:22:52.682Z,15.67
2019-05-02T13:25:56.605Z,15.17
2019-05-02T13:29:02.367Z,14.23
2019-05-02T13:32:36.971Z,14.20
2019-05-02T13:35:44.399Z,16.33
2019-05-02T13:38:48.118Z,13.43
2019-05-02T13:41:52.321Z,14.30
2019-05-02T13:45:02.297Z,12.10
2019-05-02T13:48:06.643Z,12.73
2019-05-02T13:51:11.862Z,11.87
2019-05-02T13:54:15.775Z,11.20
2019-05-02T13:57:21.656Z,10.23
2019-05-02T14:00:31.933Z,9.93
2019-05-02T14:03:35.694Z,9.90
2019-05-02T14:06:39.471Z,9.50
2019-05-02T14:09:58.253Z,9.17
2019-05-02T14:12:59.943Z,8.63
2019-05-02T14:16:03.730Z,9.40
2019-05-02T14:19:07.703Z,8.13
2019-05-02T14:22:12.893Z,6.90
2019-05-02T14:25:16.926Z,8.30
2019-05-02T14:28:22.429Z,6.40
2019-05-02T14:31:26.325Z,7.70
2019-05-02T14:34:55.147Z,6.57
2019-05-02T14:38:08.995Z,6.50
2019-05-02T14:41:23.050Z,6.33
2019-05-02T14:44:36.253Z,6.03
2019-05-02T14:47:32.577Z,6.30
2019-05-02T14:50:41.884Z,6.10
2019-05-02T14:53:42.990Z,5.57
2019-05-02T14:57:07.295Z,6.57
2019-05-02T15:00:11.471Z,5.73
2019-05-02T15:03:19.176Z,5.50
2019-05-02T15:06:20.881Z,5.57
2019-05-02T15:09:26.762Z,4.70
2019-05-02T15:12:30.048Z,5.60
2019-05-02T15:15:40.702Z,5.37
2019-05-02T15:18:39.205Z,4.97
2019-05-02T15:21:47.145Z,5.27
2019-05-02T15:24:48.688Z,4.67
2019-05-02T15:27:58.166Z,5.30
2019-05-02T15:31:11.903Z,6.30
2019-05-02T15:34:46.294Z,5.67
2019-05-02T15:37:43.278Z,5.10
2019-05-02T15:40:50.589Z,5.27
2019-05-02T15:43:52.503Z,4.73
2019-05-02T15:46:58.444Z,5.57
2019-05-02T15:50:03.018Z,5.37
2019-05-02T15:53:16.297Z,4.87
2019-05-02T15:56:22.187Z,4.30
2019-05-02T15:59:37.469Z,4.67
2019-05-02T16:02:38.970Z,5.40
2019-05-02T16:05:45.090Z,5.07
2019-05-02T16:08:48.181Z,5.47
2019-05-02T16:11:53.214Z,4.63
2019-05-02T16:14:57.679Z,4.53
2019-05-02T16:18:05.094Z,4.30
2019-05-02T16:21:11.948Z,4.57
2019-05-02T16:24:23.289Z,4.47
2019-05-02T16:27:46.619Z,5.47
2019-05-02T16:30:52.637Z,6.30
2019-05-02T16:33:57.525Z,5.37
2019-05-02T16:37:13.509Z,2.90
2019-05-02T16:40:23.933Z,2.20
2019-05-02T16:43:26.612Z,2.47
2019-05-02T16:46:32.275Z,1.33
2019-05-02T16:49:36.463Z,2.60
2019-05-02T16:52:43.773Z,1.70
2019-05-02T16:55:45.730Z,1.90
2019-05-02T16:58:49.530Z,1.80
2019-05-02T17:01:54.596Z,1.90
2019-05-02T17:05:00.284Z,2.57
2019-05-02T17:08:29.609Z,1.47
2019-05-02T17:11:36.635Z,1.50
2019-05-02T17:14:43.519Z,1.20
2019-05-02T17:17:47.692Z,1.40
2019-05-02T17:20:53.422Z,1.90
2019-05-02T17:23:57.246Z,1.80
2019-05-02T17:27:02.541Z,1.80
2019-05-02T17:30:06.965Z,2.10
2019-05-02T17:33:14.263Z,2.10
2019-05-02T17:36:16.102Z,2.00
2019-05-02T17:39:19.907Z,2.17
2019-05-02T17:42:25.794Z,2.23
2019-05-02T17:45:33.305Z,2.13
2019-05-02T17:48:36.675Z,3.37
2019-05-02T17:52:05.687Z,2.53
2019-05-02T17:55:08.757Z,2.47
2019-05-02T17:58:14.151Z,2.23
2019-05-02T18:01:26.520Z,2.53
2019-05-02T18:04:28.233Z,2.67
2019-05-02T18:07:36.094Z,2.37
2019-05-02T18:10:37.535Z,2.70
2019-05-02T18:13:42.320Z,2.67
2019-05-02T18:16:47.116Z,2.60
2019-05-02T18:19:52.122Z,2.53
2019-05-02T18:22:56.002Z,3.30
2019-05-02T18:26:04.504Z,2.63
2019-05-02T18:29:06.858Z,2.83
2019-05-02T18:32:12.662Z,3.20
2019-05-02T18:35:16.634Z,3.10
2019-05-02T18:38:21.117Z,2.60
2019-05-02T18:41:26.269Z,4.80
2019-05-02T18:44:29.987Z,3.00
2019-05-02T18:47:33.711Z,2.93
2019-05-02T18:50:46.383Z,2.80
2019-05-02T18:53:47.386Z,2.70
2019-05-02T18:56:55.426Z,2.70
2019-05-02T18:59:58.199Z,2.73
2019-05-02T19:03:02.886Z,3.00
2019-05-02T19:06:06.709Z,2.67
2019-05-02T19:09:12.718Z,2.83
2019-05-02T19:12:22.551Z,19.60
2019-05-02T19:15:22.404Z,3.70
2019-05-02T19:18:26.137Z,3.60
2019-05-02T19:21:32.013Z,3.20
2019-05-02T19:24:36.598Z,2.97
2019-05-02T19:27:59.204Z,3.10
2019-05-02T19:31:06.883Z,2.90
2019-05-02T19:34:09.221Z,2.97
2019-05-02T19:37:12.939Z,3.47
2019-05-02T19:40:24.392Z,3.53
2019-05-02T19:43:25.446Z,3.17
2019-05-02T19:46:34.626Z,3.47
2019-05-02T19:49:35.011Z,3.90
2019-05-02T19:52:40.518Z,3.20
2019-05-02T19:55:44.681Z,3.07
2019-05-02T19:58:48.534Z,3.23
2019-05-02T20:01:52.379Z,3.37
2019-05-02T20:04:56.132Z,2.90
2019-05-02T20:08:00.001Z,3.37
2019-05-02T20:11:03.908Z,3.00
2019-05-02T20:14:09.677Z,2.60
2019-05-02T20:17:19.967Z,3.27
2019-05-02T20:21:04.331Z,2.73
2019-05-02T20:24:09.101Z,3.10
2019-05-02T20:27:13.543Z,3.07
2019-05-02T20:30:17.608Z,2.60
2019-05-02T20:33:22.196Z,2.87
2019-05-02T20:36:26.091Z,2.23
2019-05-02T20:39:31.662Z,2.40
2019-05-02T20:42:35.386Z,2.50
2019-05-02T20:45:39.799Z,7.07
2019-05-02T20:48:43.502Z,2.13
2019-05-02T20:51:47.469Z,2.73
2019-05-02T20:54:52.390Z,4.60
2019-05-02T20:57:56.300Z,2.10
2019-05-02T21:01:06.245Z,2.10
2019-05-02T21:04:05.755Z,2.10
2019-05-02T21:07:19.775Z,2.17
2019-05-02T21:10:36.015Z,2.07
2019-05-02T21:13:41.719Z,2.20
2019-05-02T21:16:45.618Z,1.87
2019-05-02T21:19:49.651Z,2.07
2019-05-02T21:22:53.410Z,1.83
2019-05-02T21:25:57.536Z,2.20
2019-05-02T21:29:01.274Z,1.80
2019-05-02T21:32:05.851Z,2.10
2019-05-02T21:35:11.778Z,2.40
2019-05-02T21:38:15.470Z,1.67
2019-05-02T21:41:19.627Z,1.97
2019-05-02T21:44:23.347Z,2.30
2019-05-02T21:47:27.424Z,2.00
2019-05-02T21:50:56.260Z,1.97
2019-05-02T21:54:28.380Z,2.20
2019-05-02T21:57:32.327Z,2.10
2019-05-02T22:01:02.042Z,2.40
2019-05-02T22:04:06.026Z,2.30
2019-05-02T22:07:12.055Z,1.80
2019-05-02T22:10:15.401Z,2.47
2019-05-02T22:13:19.187Z,1.97
2019-05-02T22:16:22.919Z,2.20
2019-05-02T22:19:26.621Z,1.77
2019-05-02T22:22:31.753Z,2.03
2019-05-02T22:25:36.012Z,2.10
2019-05-02T22:28:39.731Z,2.30
2019-05-02T22:31:43.802Z,2.10
2019-05-02T22:34:47.571Z,2.30
2019-05-02T22:37:53.007Z,2.20
2019-05-02T22:40:58.136Z,1.97
2019-05-02T22:44:02.045Z,2.47
2019-05-02T22:47:05.927Z,2.70
2019-05-02T22:50:13.925Z,2.30
2019-05-02T22:53:16.798Z,1.97
2019-05-02T22:56:22.241Z,2.40
2019-05-02T22:59:26.007Z,2.20
2019-05-02T23:02:30.000Z,2.43
2019-05-02T23:05:34.407Z,2.30
2019-05-02T23:08:38.200Z,2.20
2019-05-02T23:11:42.741Z,2.43
2019-05-02T23:14:46.850Z,2.07
2019-05-02T23:17:52.279Z,2.63
2019-05-02T23:20:56.144Z,2.27
2019-05-02T23:24:01.739Z,2.13
2019-05-02T23:27:27.455Z,2.47
2019-05-02T23:30:31.859Z,2.50
2019-05-02T23:33:54.630Z,2.17
2019-05-02T23:36:58.498Z,2.27
2019-05-02T23:40:02.289Z,2.40
2019-05-02T23:43:06.022Z,2.17
2019-05-02T23:46:11.604Z,2.60
2019-05-02T23:49:15.216Z,2.33
2019-05-02T23:52:19.405Z,2.57
2019-05-02T23:55:23.752Z,2.47
2019-05-02T23:58:27.788Z,2.40
